Main page
METAR-TAF:

METAR-TAF

Airports :

Birmingham Airport

Birmingham, England

latitude: 52-27N, longitude: 001-44W, elevation: 99 m

Current weather observation

The report was made 37 minutes ago, at 21:50 UTC
Wind 5 kt from the East
Temperature 6°C
Humidity 93%
Pressure 1029 hPa
Visibility: 7000 m

METAR: EGBB 172150Z 08005KT 7000 NSC 06/05 Q1029

Time: 22:27 (22:27 UTC)

Forecast

The report was made 1 hour and 25 minutes ago, at 21:02 UTC
Forecast valid from 17 at 21 UTC to 18 at 18 UTC
Wind 7 kt from the East/Northeast
Visibility 10 km or more
no clouds below 1500 m and no cumulonimbus
Becoming
from 17 at 21 UTC to 17 at 24 UTC
Visibility: 7000 m
Probability 40%
from 17 at 21 UTC to 18 at 09 UTC
Visibility: 4000 m
mist
Becoming
from 18 at 09 UTC to 18 at 12 UTC
Visibility 10 km or more
Becoming
from 18 at 15 UTC to 18 at 18 UTC
Visibility: 7000 m

TAF: EGBB 172102Z 1721/1818 06007KT CAVOK BECMG 1721/1724 7000 PROB40 1721/1809 4000 BR BECMG 1809/1812 9999 NSW BECMG 1815/1818 7000

Weather observations and forecasts of more than 4000 airports (METAR and TAF reports).

The available stations are represented by yellow and red dots on the map.

Hover mouse over dot to see the name of the station.

Then click to see weather observations and forecasts.

To change the map : click on the green buttons with a black cross to zoom in, on the green button with a dash to zoom out, or on the green arrows for adjacent maps.


METAR-TAF: